createdAt,value
2022-10-30T00:00:02.826Z,90.9
2022-10-30T00:01:02.765Z,90.8
2022-10-30T00:02:03.361Z,90.9
2022-10-30T00:03:04.410Z,90.9
2022-10-30T00:04:02.781Z,90.9
2022-10-30T00:05:02.794Z,91.0
2022-10-30T00:06:02.923Z,91.0
2022-10-30T00:07:02.799Z,90.9
2022-10-30T00:08:02.808Z,90.9
2022-10-30T00:09:02.818Z,90.9
2022-10-30T00:10:02.833Z,91.0
2022-10-30T00:11:02.839Z,91.0
2022-10-30T00:12:02.847Z,91.0
2022-10-30T00:13:02.863Z,91.1
2022-10-30T00:14:02.855Z,91.1
2022-10-30T00:15:02.864Z,91.3
2022-10-30T00:16:02.872Z,91.3
2022-10-30T00:17:02.880Z,91.2
2022-10-30T00:18:02.903Z,91.2
2022-10-30T00:19:03.234Z,91.4
2022-10-30T00:20:02.902Z,91.4
2022-10-30T00:21:02.986Z,91.5
2022-10-30T00:23:03.088Z,91.5
2022-10-30T00:24:02.930Z,91.4
2022-10-30T00:25:02.937Z,91.3
2022-10-30T00:26:02.942Z,91.4
2022-10-30T00:27:02.954Z,91.3
2022-10-30T00:28:02.974Z,91.4
2022-10-30T00:29:02.973Z,91.3
2022-10-30T00:30:02.988Z,91.3
2022-10-30T00:31:02.984Z,91.3
2022-10-30T00:32:02.986Z,91.4
2022-10-30T00:33:02.987Z,91.4
2022-10-30T00:34:03.001Z,91.4
2022-10-30T00:35:03.012Z,91.4
2022-10-30T00:36:03.033Z,91.3
2022-10-30T00:37:03.017Z,91.3
2022-10-30T00:38:03.140Z,91.4
2022-10-30T00:39:03.035Z,91.3
2022-10-30T00:40:03.048Z,91.3
2022-10-30T00:58:03.711Z,91.5
2022-10-30T00:59:03.206Z,91.5
2022-10-30T01:00:03.210Z,91.5
2022-10-30T01:18:03.588Z,91.5
2022-10-30T01:19:03.389Z,91.5
2022-10-30T01:20:03.553Z,91.6
2022-10-30T01:21:03.408Z,91.5
2022-10-30T01:22:03.416Z,91.6
2022-10-30T01:23:03.421Z,91.6
2022-10-30T01:24:03.431Z,91.6
2022-10-30T01:25:03.441Z,91.6
2022-10-30T01:26:03.445Z,91.5
2022-10-30T01:27:03.455Z,91.6
2022-10-30T01:28:03.459Z,91.6
2022-10-30T01:29:03.469Z,91.7
2022-10-30T01:30:03.482Z,91.7
2022-10-30T01:31:03.487Z,91.7
2022-10-30T01:32:03.499Z,91.6
2022-10-30T01:33:03.511Z,91.6
2022-10-30T01:34:03.520Z,91.5
2022-10-30T01:35:03.534Z,91.5
2022-10-30T01:36:03.538Z,91.5
2022-10-30T01:37:03.542Z,91.5
2022-10-30T01:38:03.547Z,91.5
2022-10-30T01:39:03.552Z,91.4
2022-10-30T01:40:03.579Z,91.3
2022-10-30T01:41:03.592Z,91.3
2022-10-30T01:42:03.579Z,91.3
2022-10-30T01:43:03.592Z,91.3
2022-10-30T01:44:03.630Z,91.3
2022-10-30T01:45:03.616Z,91.3
2022-10-30T01:46:03.635Z,91.2
2022-10-30T01:47:03.629Z,91.2
2022-10-30T01:48:03.642Z,91.2
2022-10-30T01:49:03.650Z,91.2
2022-10-30T01:50:03.653Z,91.2
2022-10-30T01:51:03.649Z,91.1
2022-10-30T01:52:03.674Z,91.0
2022-10-30T01:53:03.679Z,91.1
2022-10-30T01:54:03.687Z,91.1
2022-10-30T01:55:03.691Z,91.1
2022-10-30T01:56:03.698Z,90.9
2022-10-30T01:57:03.696Z,91.0
2022-10-30T01:58:03.707Z,90.9
2022-10-30T01:59:03.732Z,90.9
2022-10-30T02:17:04.055Z,90.6
2022-10-30T02:18:03.863Z,90.6
2022-10-30T02:19:03.860Z,90.6
2022-10-30T02:20:03.880Z,90.6
2022-10-30T02:21:03.885Z,90.6
2022-10-30T02:22:04.187Z,90.6
2022-10-30T02:23:04.846Z,90.6
2022-10-30T02:24:03.905Z,90.5
2022-10-30T02:25:03.918Z,90.5
2022-10-30T02:26:03.925Z,90.5
2022-10-30T02:27:03.928Z,90.4
2022-10-30T02:28:03.945Z,90.4
2022-10-30T02:29:03.959Z,90.4
2022-10-30T02:30:03.963Z,90.4
2022-10-30T02:31:03.964Z,90.4
2022-10-30T02:32:03.975Z,90.4
2022-10-30T02:33:04.204Z,90.3
2022-10-30T02:34:03.991Z,90.4
2022-10-30T02:35:04.004Z,90.3
2022-10-30T02:36:04.009Z,90.3
2022-10-30T02:37:04.023Z,90.4
2022-10-30T02:38:04.027Z,90.4
2022-10-30T02:39:04.039Z,90.4
2022-10-30T02:40:04.042Z,90.5
2022-10-30T02:41:04.049Z,90.4
2022-10-30T02:42:04.065Z,90.5
2022-10-30T02:43:04.070Z,90.5
2022-10-30T02:44:04.081Z,90.4
2022-10-30T02:45:04.102Z,90.5
2022-10-30T02:46:04.106Z,90.5
2022-10-30T02:47:04.111Z,90.5
2022-10-30T02:48:04.607Z,90.5
2022-10-30T02:49:04.122Z,90.5
2022-10-30T02:50:04.140Z,90.5
2022-10-30T02:51:04.147Z,90.5
2022-10-30T02:52:04.361Z,90.7
2022-10-30T02:53:04.156Z,90.7
2022-10-30T02:54:04.169Z,90.6
2022-10-30T02:55:04.176Z,90.6
2022-10-30T02:56:04.194Z,90.7
2022-10-30T02:57:04.193Z,90.7
2022-10-30T02:58:04.202Z,90.6
2022-10-30T02:59:04.208Z,90.6
2022-10-30T03:00:04.218Z,90.6
2022-10-30T03:01:04.411Z,90.7
2022-10-30T03:02:04.569Z,90.7
2022-10-30T03:03:04.264Z,90.7
2022-10-30T03:04:04.253Z,90.6
2022-10-30T03:05:04.334Z,90.7
2022-10-30T03:06:04.266Z,90.7
2022-10-30T03:07:04.273Z,90.7
2022-10-30T03:08:04.282Z,90.7
2022-10-30T03:09:04.286Z,90.7
2022-10-30T03:10:04.291Z,90.7
2022-10-30T03:11:04.298Z,90.7
2022-10-30T03:12:04.316Z,90.7
2022-10-30T03:13:04.329Z,90.7
2022-10-30T03:14:04.336Z,90.7
2022-10-30T03:15:04.343Z,90.8
2022-10-30T03:16:04.352Z,90.8
2022-10-30T03:17:04.354Z,90.8
2022-10-30T03:18:04.376Z,90.8
2022-10-30T03:19:04.372Z,90.8
2022-10-30T03:20:04.380Z,90.8
2022-10-30T03:21:04.392Z,90.7
2022-10-30T03:22:04.408Z,90.7
2022-10-30T03:23:04.399Z,90.7
2022-10-30T03:24:04.418Z,90.6
2022-10-30T03:25:04.418Z,90.7
2022-10-30T03:26:04.429Z,90.8
2022-10-30T03:27:04.441Z,90.8
2022-10-30T03:28:04.458Z,90.8
2022-10-30T03:29:04.453Z,90.7
2022-10-30T03:30:04.461Z,90.8
2022-10-30T03:31:04.472Z,90.8
2022-10-30T03:32:04.472Z,90.9
2022-10-30T03:33:04.489Z,90.8
2022-10-30T03:34:04.493Z,90.9
2022-10-30T03:35:04.570Z,90.9
2022-10-30T03:36:04.507Z,90.8
2022-10-30T03:37:04.517Z,90.8
2022-10-30T03:38:04.535Z,90.8
2022-10-30T03:39:04.544Z,90.9
2022-10-30T03:40:04.555Z,91.0
2022-10-30T03:41:04.564Z,91.1
2022-10-30T03:42:04.576Z,91.1
2022-10-30T03:43:04.578Z,91.1
2022-10-30T03:44:04.594Z,91.1
2022-10-30T03:45:04.606Z,91.0
2022-10-30T03:46:04.608Z,91.1
2022-10-30T03:47:04.739Z,91.2
2022-10-30T03:48:04.627Z,91.2
2022-10-30T03:49:04.689Z,91.3
2022-10-30T03:50:04.650Z,91.3
2022-10-30T03:51:04.661Z,91.2
2022-10-30T03:52:04.667Z,91.2
2022-10-30T03:53:04.672Z,91.2
2022-10-30T03:54:04.686Z,91.2
2022-10-30T03:55:04.693Z,91.1
2022-10-30T03:56:04.734Z,91.1
2022-10-30T03:57:04.710Z,91.1
2022-10-30T03:58:04.743Z,91.2
2022-10-30T03:59:04.728Z,91.2
2022-10-30T04:00:04.821Z,91.3
2022-10-30T04:01:05.010Z,91.4
2022-10-30T04:02:05.631Z,91.4
2022-10-30T04:03:04.765Z,91.3
2022-10-30T04:04:04.763Z,91.3
2022-10-30T04:05:04.783Z,91.2
2022-10-30T04:06:04.785Z,91.2
2022-10-30T04:07:04.780Z,91.2
2022-10-30T04:08:04.788Z,91.2
2022-10-30T04:09:04.831Z,91.2
2022-10-30T04:10:04.812Z,91.2
2022-10-30T04:11:05.129Z,91.2
2022-10-30T04:12:04.834Z,91.2
2022-10-30T04:13:04.853Z,91.1
2022-10-30T04:14:04.860Z,91.2
2022-10-30T04:15:04.867Z,91.3
2022-10-30T04:16:04.864Z,91.2
2022-10-30T04:17:04.989Z,91.3
2022-10-30T04:18:04.894Z,91.3
2022-10-30T04:19:04.889Z,91.3
2022-10-30T04:20:04.987Z,91.3
2022-10-30T04:21:04.903Z,91.3
2022-10-30T04:22:04.912Z,91.3
2022-10-30T04:23:04.920Z,91.5
2022-10-30T04:24:04.948Z,91.6
2022-10-30T04:25:04.941Z,91.6
2022-10-30T04:26:04.944Z,91.6
2022-10-30T04:27:04.958Z,91.6
2022-10-30T04:28:04.970Z,91.5
2022-10-30T04:29:04.969Z,91.5
2022-10-30T04:30:04.986Z,91.4
2022-10-30T04:31:04.990Z,91.4
2022-10-30T04:33:05.003Z,91.4
2022-10-30T04:34:05.040Z,91.4
2022-10-30T04:35:05.023Z,91.3
2022-10-30T04:36:05.021Z,91.3
2022-10-30T04:37:05.028Z,91.3
2022-10-30T04:38:05.037Z,91.4
2022-10-30T04:39:05.043Z,91.4
2022-10-30T04:40:05.070Z,91.4
2022-10-30T04:41:05.070Z,91.4
2022-10-30T04:42:05.074Z,91.4
2022-10-30T04:43:05.082Z,91.5
2022-10-30T04:44:05.091Z,91.4
2022-10-30T04:45:06.377Z,91.4
2022-10-30T04:46:05.106Z,91.3
2022-10-30T04:47:05.128Z,91.4
2022-10-30T04:48:05.179Z,91.5
2022-10-30T04:49:05.143Z,91.5
2022-10-30T04:50:05.159Z,91.5
2022-10-30T04:51:05.165Z,91.4
2022-10-30T04:52:05.173Z,91.4
2022-10-30T04:53:05.180Z,91.5
2022-10-30T04:54:05.196Z,91.5
2022-10-30T04:55:05.196Z,91.4
2022-10-30T04:56:05.248Z,91.4
2022-10-30T04:57:05.207Z,91.5
2022-10-30T04:58:05.221Z,91.5
2022-10-30T04:59:05.236Z,91.5
2022-10-30T05:00:05.253Z,91.5
2022-10-30T05:01:05.536Z,91.5
2022-10-30T05:02:05.954Z,91.5
2022-10-30T05:03:05.277Z,91.5
2022-10-30T05:04:05.281Z,91.4
2022-10-30T05:05:05.279Z,91.4
2022-10-30T05:06:05.301Z,91.4
2022-10-30T05:07:05.306Z,91.5
2022-10-30T05:08:05.326Z,91.6
2022-10-30T05:09:05.329Z,91.5
2022-10-30T05:10:05.342Z,91.5
2022-10-30T05:11:05.350Z,91.5
2022-10-30T05:12:05.354Z,91.4
2022-10-30T05:13:05.369Z,91.4
2022-10-30T05:14:05.383Z,91.4
2022-10-30T05:15:05.415Z,91.4
2022-10-30T05:16:05.394Z,91.4
2022-10-30T05:17:05.398Z,91.4
2022-10-30T05:18:05.419Z,91.4
2022-10-30T05:19:05.416Z,91.4
2022-10-30T05:20:05.436Z,91.3
2022-10-30T05:21:05.421Z,91.4
2022-10-30T05:22:05.464Z,91.3
2022-10-30T05:23:05.457Z,91.3
2022-10-30T05:24:05.442Z,91.3
2022-10-30T05:25:05.469Z,91.3
2022-10-30T05:26:05.474Z,91.2
2022-10-30T05:27:05.485Z,91.2
2022-10-30T05:28:05.489Z,91.2
2022-10-30T05:29:05.498Z,91.1
2022-10-30T05:30:05.519Z,91.1
2022-10-30T05:31:05.527Z,91.0
2022-10-30T05:32:05.641Z,91.0
2022-10-30T05:33:05.559Z,91.0
2022-10-30T05:34:07.894Z,91.0
2022-10-30T05:35:05.878Z,90.8
2022-10-30T05:36:05.584Z,90.8
2022-10-30T05:37:05.598Z,90.8
2022-10-30T05:38:05.600Z,90.7
2022-10-30T05:39:05.609Z,90.8
2022-10-30T05:40:05.613Z,90.8
2022-10-30T05:41:05.631Z,90.6
2022-10-30T05:42:14.105Z,90.5
2022-10-30T05:43:05.645Z,90.5
2022-10-30T05:44:05.650Z,90.4
2022-10-30T05:45:05.672Z,90.3
2022-10-30T05:46:05.667Z,90.3
2022-10-30T05:47:05.697Z,90.2
2022-10-30T05:48:05.703Z,90.1
2022-10-30T05:49:05.708Z,90.1
2022-10-30T05:50:05.715Z,90.0
2022-10-30T05:51:05.715Z,90.0
2022-10-30T05:52:05.736Z,89.9
2022-10-30T05:53:05.740Z,89.9
2022-10-30T05:54:05.801Z,89.9
2022-10-30T05:55:05.816Z,89.9
2022-10-30T05:56:05.838Z,89.8
2022-10-30T05:57:05.774Z,89.7
2022-10-30T05:58:05.778Z,89.7
2022-10-30T05:59:05.816Z,89.7
2022-10-30T06:00:05.796Z,89.7
2022-10-30T06:01:05.828Z,89.6
2022-10-30T06:02:06.036Z,89.6
2022-10-30T06:03:06.221Z,89.6
2022-10-30T06:04:05.830Z,89.5
2022-10-30T06:05:05.841Z,89.5
2022-10-30T06:06:05.844Z,89.4
2022-10-30T06:07:05.869Z,89.4
2022-10-30T06:08:05.866Z,89.4
2022-10-30T06:09:05.886Z,89.5
2022-10-30T06:10:05.892Z,89.4
2022-10-30T06:11:05.942Z,89.4
2022-10-30T06:12:05.910Z,89.4
2022-10-30T06:13:05.915Z,89.4
2022-10-30T06:14:05.924Z,89.4
2022-10-30T06:15:05.940Z,89.4
2022-10-30T06:16:05.935Z,89.4
2022-10-30T06:17:05.949Z,89.4
2022-10-30T06:18:05.977Z,89.4
2022-10-30T06:19:05.970Z,89.4
2022-10-30T06:20:05.972Z,89.4
2022-10-30T06:21:05.980Z,89.6
2022-10-30T06:22:05.982Z,89.5
2022-10-30T06:23:06.012Z,89.5
2022-10-30T06:24:06.016Z,89.6
2022-10-30T06:25:06.023Z,89.6
2022-10-30T06:26:06.021Z,89.6
2022-10-30T06:27:06.046Z,89.6
2022-10-30T06:28:06.045Z,89.6
2022-10-30T06:29:06.086Z,89.6
2022-10-30T06:30:06.077Z,89.6
2022-10-30T06:31:06.435Z,89.6
2022-10-30T06:32:07.211Z,89.6
2022-10-30T06:33:06.127Z,89.5
2022-10-30T06:34:06.118Z,89.5
2022-10-30T06:35:06.127Z,89.6
2022-10-30T06:36:06.125Z,89.6
2022-10-30T06:37:06.409Z,89.5
2022-10-30T06:38:06.141Z,89.5
2022-10-30T06:39:06.151Z,89.5
2022-10-30T06:40:06.165Z,89.4
2022-10-30T06:41:06.167Z,89.4
2022-10-30T06:42:06.172Z,89.4
2022-10-30T06:43:06.176Z,89.4
2022-10-30T06:44:06.188Z,89.4
2022-10-30T06:45:06.215Z,89.4
2022-10-30T06:47:06.212Z,89.3
2022-10-30T06:48:06.221Z,89.2
2022-10-30T06:49:06.219Z,89.1
2022-10-30T06:50:06.247Z,89.1
2022-10-30T06:51:06.235Z,89.1
2022-10-30T06:52:06.237Z,89.1
2022-10-30T06:53:06.255Z,89.2
2022-10-30T06:54:06.681Z,89.2
2022-10-30T06:55:06.272Z,89.1
2022-10-30T06:56:06.307Z,89.1
2022-10-30T06:57:06.308Z,89.2
2022-10-30T06:58:06.327Z,89.1
2022-10-30T06:59:06.307Z,89.1
2022-10-30T07:00:06.321Z,89.1
2022-10-30T07:01:06.332Z,89.2
2022-10-30T07:02:11.640Z,89.2
2022-10-30T07:03:06.343Z,89.2
2022-10-30T07:04:06.356Z,89.2
2022-10-30T07:05:06.367Z,89.3
2022-10-30T07:06:06.379Z,89.2
2022-10-30T07:07:06.404Z,89.2
2022-10-30T07:08:06.406Z,89.1
2022-10-30T07:09:06.402Z,89.0
2022-10-30T07:10:06.427Z,89.0
2022-10-30T07:11:06.427Z,88.9
2022-10-30T07:12:07.373Z,88.9
2022-10-30T07:13:06.458Z,88.8
2022-10-30T07:14:06.474Z,88.7
2022-10-30T07:15:06.485Z,88.7
2022-10-30T07:16:06.483Z,88.7
2022-10-30T07:17:06.491Z,88.6
2022-10-30T07:18:06.495Z,88.6
2022-10-30T07:19:06.906Z,88.6
2022-10-30T07:20:06.514Z,88.5
2022-10-30T07:21:06.517Z,88.4
2022-10-30T07:22:06.535Z,88.4
2022-10-30T07:23:06.531Z,88.4
2022-10-30T07:24:06.548Z,88.4
2022-10-30T07:25:06.553Z,88.3
2022-10-30T07:26:06.561Z,88.3
2022-10-30T07:27:06.576Z,88.3
2022-10-30T07:28:06.588Z,88.2
2022-10-30T07:29:06.598Z,88.2
2022-10-30T07:30:06.604Z,88.1
2022-10-30T07:31:06.624Z,88.1
2022-10-30T07:32:06.623Z,87.9
2022-10-30T07:33:06.641Z,88.0
2022-10-30T07:34:06.632Z,87.9
2022-10-30T07:35:06.656Z,87.8
2022-10-30T07:36:06.684Z,87.8
2022-10-30T07:37:06.670Z,87.8
2022-10-30T07:38:06.677Z,87.7
2022-10-30T07:39:06.682Z,87.7
2022-10-30T07:40:13.454Z,87.6
2022-10-30T07:41:06.699Z,87.6
2022-10-30T07:42:06.708Z,87.5
2022-10-30T07:43:06.746Z,87.5
2022-10-30T07:44:06.740Z,87.4
2022-10-30T07:45:06.880Z,87.4
2022-10-30T07:46:06.792Z,87.3
2022-10-30T07:47:06.769Z,87.3
2022-10-30T07:48:06.777Z,87.2
2022-10-30T07:49:06.788Z,87.1
2022-10-30T07:50:06.788Z,87.0
2022-10-30T07:51:06.803Z,87.0
2022-10-30T07:52:06.829Z,86.9
2022-10-30T07:53:06.832Z,86.9
2022-10-30T07:54:06.846Z,86.8
2022-10-30T07:55:06.855Z,86.7
2022-10-30T07:56:06.854Z,86.7
2022-10-30T07:57:06.872Z,86.7
2022-10-30T07:58:06.873Z,86.6
2022-10-30T07:59:06.889Z,86.6
2022-10-30T08:00:06.907Z,86.4
2022-10-30T08:01:07.019Z,86.3
2022-10-30T08:02:07.410Z,86.3
2022-10-30T08:03:06.940Z,86.3
2022-10-30T08:04:07.343Z,86.3
2022-10-30T08:05:06.959Z,86.2
2022-10-30T08:06:06.963Z,86.1
2022-10-30T08:07:06.992Z,86.1
2022-10-30T08:08:06.990Z,85.9
2022-10-30T08:09:07.003Z,86.0
2022-10-30T08:10:07.050Z,85.9
2022-10-30T08:11:07.026Z,85.7
2022-10-30T08:12:07.048Z,85.5
2022-10-30T08:13:07.048Z,85.5
2022-10-30T08:14:07.068Z,85.2
2022-10-30T08:15:07.074Z,85.1
2022-10-30T08:16:07.076Z,85.0
2022-10-30T08:17:07.104Z,84.6
2022-10-30T08:18:07.092Z,84.4
2022-10-30T08:19:07.116Z,84.4
2022-10-30T08:20:07.122Z,84.3
2022-10-30T08:21:07.130Z,84.2
2022-10-30T08:22:07.139Z,84.0
2022-10-30T08:23:07.150Z,83.9
2022-10-30T08:24:07.152Z,83.7
2022-10-30T08:25:07.148Z,83.3
2022-10-30T08:26:07.163Z,83.5
2022-10-30T08:27:07.179Z,83.4
2022-10-30T08:28:07.194Z,83.2
2022-10-30T08:29:07.192Z,83.3
2022-10-30T08:30:07.216Z,83.2
2022-10-30T08:31:07.218Z,83.1
2022-10-30T08:32:07.223Z,83.1
2022-10-30T08:33:07.273Z,83.1
2022-10-30T08:34:07.242Z,83.0
2022-10-30T08:35:07.252Z,83.0
2022-10-30T08:36:07.273Z,83.1
2022-10-30T08:37:07.276Z,83.1
2022-10-30T08:38:07.282Z,83.1
2022-10-30T08:39:07.589Z,83.1
2022-10-30T08:40:07.815Z,83.1
2022-10-30T08:41:07.335Z,83.0
2022-10-30T08:42:29.010Z,83.1
2022-10-30T08:43:28.179Z,83.1
2022-10-30T08:44:28.207Z,83.2
2022-10-30T08:45:31.646Z,83.2
2022-10-30T08:46:28.235Z,83.3
2022-10-30T08:47:28.240Z,83.3
2022-10-30T08:48:28.247Z,83.3
2022-10-30T08:49:28.253Z,83.4
2022-10-30T08:50:28.318Z,83.5
2022-10-30T08:51:28.271Z,83.5
2022-10-30T08:52:28.287Z,83.5
2022-10-30T08:53:28.292Z,83.5
2022-10-30T08:54:28.313Z,83.5
2022-10-30T08:55:28.319Z,83.5
2022-10-30T08:56:28.345Z,83.6
2022-10-30T08:57:28.353Z,83.7
2022-10-30T08:58:28.368Z,83.7
2022-10-30T08:59:28.378Z,83.7
2022-10-30T09:00:28.431Z,83.7
2022-10-30T09:01:28.909Z,83.7
2022-10-30T09:02:29.035Z,83.7
2022-10-30T09:03:28.405Z,83.7
2022-10-30T09:04:28.424Z,83.7
2022-10-30T09:05:28.495Z,83.7
2022-10-30T09:06:28.440Z,83.6
2022-10-30T09:07:28.457Z,83.6
2022-10-30T09:08:43.515Z,83.6
2022-10-30T09:09:28.479Z,83.6
2022-10-30T09:10:28.615Z,83.5
2022-10-30T09:11:28.505Z,83.4
2022-10-30T09:12:28.521Z,83.5
2022-10-30T09:13:28.539Z,83.5
2022-10-30T09:14:28.540Z,83.4
2022-10-30T09:15:28.566Z,83.3
2022-10-30T09:16:28.558Z,83.2
2022-10-30T09:17:28.574Z,83.1
2022-10-30T09:18:28.591Z,83.2
2022-10-30T09:19:28.608Z,83.1
2022-10-30T09:20:28.618Z,83.0
2022-10-30T09:21:28.637Z,82.7
2022-10-30T09:22:28.648Z,82.6
2022-10-30T09:23:28.663Z,82.7
2022-10-30T09:24:28.675Z,82.5
2022-10-30T09:25:28.731Z,82.5
2022-10-30T09:26:28.694Z,82.1
2022-10-30T09:27:28.721Z,82.1
2022-10-30T09:28:28.720Z,81.9
2022-10-30T09:29:28.763Z,82.0
2022-10-30T09:30:28.773Z,81.8
2022-10-30T09:31:28.759Z,81.5
2022-10-30T09:32:28.758Z,81.6
2022-10-30T09:33:28.776Z,81.6
2022-10-30T09:35:28.821Z,81.4
2022-10-30T09:36:28.807Z,81.3
2022-10-30T09:37:28.825Z,81.4
2022-10-30T09:38:28.859Z,81.4
2022-10-30T09:39:28.866Z,81.4
2022-10-30T09:40:28.895Z,81.2
2022-10-30T09:41:28.893Z,80.7
2022-10-30T09:42:28.907Z,80.7
2022-10-30T09:43:28.915Z,80.6
2022-10-30T09:44:28.953Z,80.6
2022-10-30T09:45:30.686Z,80.5
2022-10-30T09:46:28.984Z,80.5
2022-10-30T09:47:28.990Z,80.5
2022-10-30T09:48:29.026Z,80.4
2022-10-30T09:49:29.043Z,80.3
2022-10-30T09:50:29.041Z,80.4
2022-10-30T09:51:29.062Z,80.3
2022-10-30T09:52:29.075Z,80.2
2022-10-30T09:53:29.089Z,80.1
2022-10-30T09:54:29.128Z,79.9
2022-10-30T09:55:29.142Z,79.9
2022-10-30T09:56:29.161Z,79.9
2022-10-30T09:57:29.174Z,79.9
2022-10-30T09:58:29.199Z,79.8
2022-10-30T09:59:29.210Z,79.7
2022-10-30T10:00:29.213Z,79.7
2022-10-30T10:01:29.765Z,79.8
2022-10-30T10:02:29.740Z,79.7
2022-10-30T10:03:29.246Z,79.6
2022-10-30T10:04:29.255Z,79.5
2022-10-30T10:05:29.261Z,79.4
2022-10-30T10:06:29.280Z,79.4
2022-10-30T10:07:29.296Z,79.3
2022-10-30T10:08:29.348Z,79.2
2022-10-30T10:09:29.483Z,79.2
2022-10-30T10:10:29.341Z,79.2
2022-10-30T10:11:29.339Z,79.3
2022-10-30T10:12:29.357Z,79.3
2022-10-30T10:13:29.365Z,79.3
2022-10-30T10:14:29.390Z,79.0
2022-10-30T10:15:29.389Z,79.0
2022-10-30T10:16:29.437Z,78.7
2022-10-30T10:17:29.417Z,78.6
2022-10-30T10:18:29.761Z,78.5
2022-10-30T10:19:29.436Z,78.2
2022-10-30T10:20:29.451Z,78.2
2022-10-30T10:21:29.460Z,78.2
2022-10-30T10:22:29.469Z,78.1
2022-10-30T10:23:29.473Z,78.1
2022-10-30T10:24:29.489Z,78.0
2022-10-30T10:25:29.507Z,78.0
2022-10-30T10:26:29.523Z,77.5
2022-10-30T10:27:29.537Z,77.5
2022-10-30T10:28:37.005Z,77.5
2022-10-30T10:29:29.568Z,77.5
2022-10-30T10:30:29.594Z,77.6
2022-10-30T10:31:29.598Z,77.7
2022-10-30T10:32:29.591Z,77.7
2022-10-30T10:33:29.625Z,77.7
2022-10-30T10:34:29.632Z,77.8
2022-10-30T10:35:29.633Z,77.8
2022-10-30T10:36:29.640Z,77.8
2022-10-30T10:37:29.657Z,77.9
2022-10-30T10:38:29.672Z,77.3
2022-10-30T10:39:29.681Z,77.0
2022-10-30T10:40:29.698Z,77.2
2022-10-30T10:41:29.710Z,77.1
2022-10-30T10:42:29.722Z,77.0
2022-10-30T10:43:29.739Z,77.1
2022-10-30T10:44:29.744Z,77.0
2022-10-30T10:45:29.757Z,77.0
2022-10-30T10:46:29.765Z,77.1
2022-10-30T10:47:29.783Z,77.1
2022-10-30T10:48:29.774Z,76.6
2022-10-30T10:49:29.823Z,76.7
2022-10-30T10:50:29.795Z,76.8
2022-10-30T10:51:29.804Z,76.8
2022-10-30T10:52:29.834Z,76.4
2022-10-30T10:53:29.821Z,76.6
2022-10-30T10:54:29.836Z,76.6
2022-10-30T10:55:29.848Z,76.5
2022-10-30T10:56:29.840Z,76.4
2022-10-30T10:57:29.851Z,76.5
2022-10-30T10:58:29.853Z,76.2
2022-10-30T10:59:29.858Z,76.2
2022-10-30T11:00:29.859Z,76.0
2022-10-30T11:01:30.328Z,76.0
2022-10-30T11:02:30.325Z,75.4
2022-10-30T11:03:29.889Z,75.6
2022-10-30T11:04:29.897Z,75.2
2022-10-30T11:05:29.892Z,75.1
2022-10-30T11:06:29.909Z,75.2
2022-10-30T11:07:29.914Z,75.3
2022-10-30T11:08:29.914Z,75.3
2022-10-30T11:09:29.922Z,75.2
2022-10-30T11:10:29.925Z,75.2
2022-10-30T11:11:29.932Z,75.3
2022-10-30T11:12:36.722Z,75.3
2022-10-30T11:13:29.948Z,75.1
2022-10-30T11:14:29.958Z,75.2
2022-10-30T11:15:29.974Z,75.2
2022-10-30T11:16:29.983Z,74.6
2022-10-30T11:17:29.973Z,74.5
2022-10-30T11:18:30.009Z,74.6
2022-10-30T11:19:30.004Z,74.6
2022-10-30T11:20:30.005Z,74.7
2022-10-30T11:21:30.009Z,74.6
2022-10-30T11:22:30.026Z,74.6
2022-10-30T11:23:30.027Z,74.6
2022-10-30T11:24:30.033Z,74.6
2022-10-30T11:25:31.535Z,74.3
2022-10-30T11:26:30.049Z,74.1
2022-10-30T11:27:30.055Z,74.1
2022-10-30T11:28:30.068Z,74.2
2022-10-30T11:29:30.098Z,74.1
2022-10-30T11:30:30.070Z,73.8
2022-10-30T11:31:30.091Z,73.8
2022-10-30T11:32:30.709Z,73.8
2022-10-30T11:33:30.093Z,73.7
2022-10-30T11:34:30.107Z,73.5
2022-10-30T11:35:30.097Z,73.5
2022-10-30T11:36:30.108Z,73.7
2022-10-30T11:37:30.113Z,73.7
2022-10-30T11:38:30.133Z,73.7
2022-10-30T11:39:30.127Z,73.7
2022-10-30T11:40:30.128Z,73.8
2022-10-30T11:41:30.142Z,73.8
2022-10-30T11:42:30.146Z,74.1
2022-10-30T11:43:30.254Z,74.1
2022-10-30T11:44:30.155Z,73.4
2022-10-30T11:45:30.171Z,73.6
2022-10-30T11:46:30.204Z,73.1
2022-10-30T11:47:30.329Z,73.0
2022-10-30T11:48:30.181Z,72.8
2022-10-30T11:49:30.190Z,72.9
2022-10-30T11:50:30.215Z,72.7
2022-10-30T11:51:30.317Z,72.7
2022-10-30T11:52:30.217Z,72.4
2022-10-30T11:53:30.217Z,72.2
2022-10-30T11:54:30.217Z,71.8
2022-10-30T11:55:30.227Z,71.6
2022-10-30T11:56:30.230Z,71.7
2022-10-30T11:57:30.240Z,71.3
2022-10-30T11:58:30.272Z,71.4
2022-10-30T11:59:30.264Z,71.4
2022-10-30T12:00:30.272Z,71.6
2022-10-30T12:01:30.523Z,71.5
2022-10-30T12:02:30.845Z,71.6
2022-10-30T12:03:30.314Z,71.7
2022-10-30T12:04:30.289Z,71.9
2022-10-30T12:05:30.302Z,72.0
2022-10-30T12:06:30.312Z,72.1
2022-10-30T12:07:30.317Z,72.3
2022-10-30T12:08:30.321Z,72.3
2022-10-30T12:09:30.341Z,72.2
2022-10-30T12:10:30.367Z,72.3
2022-10-30T12:11:30.350Z,72.3
2022-10-30T12:12:30.364Z,72.5
2022-10-30T12:13:30.361Z,72.5
2022-10-30T12:14:30.371Z,72.5
2022-10-30T12:15:30.374Z,72.6
2022-10-30T12:16:30.380Z,72.7
2022-10-30T12:17:30.387Z,72.8
2022-10-30T12:18:30.440Z,72.6
2022-10-30T12:19:30.408Z,72.0
2022-10-30T12:20:30.410Z,72.1
2022-10-30T12:21:30.416Z,71.6
2022-10-30T12:22:30.423Z,71.8
2022-10-30T12:23:30.439Z,71.7
2022-10-30T12:24:30.435Z,71.4
2022-10-30T12:25:30.435Z,71.3
2022-10-30T12:26:30.450Z,71.4
2022-10-30T12:27:30.453Z,71.4
2022-10-30T12:28:30.461Z,70.7
2022-10-30T12:30:07.218Z,70.8
2022-10-30T12:30:30.469Z,70.8
2022-10-30T12:31:30.479Z,70.8
2022-10-30T12:32:38.554Z,71.0
2022-10-30T12:33:30.501Z,70.9
2022-10-30T12:34:30.494Z,70.8
2022-10-30T12:35:30.501Z,70.8
2022-10-30T12:36:30.508Z,70.7
2022-10-30T12:37:30.509Z,70.7
2022-10-30T12:38:30.555Z,70.9
2022-10-30T12:39:30.527Z,71.0
2022-10-30T12:40:30.536Z,71.0
2022-10-30T12:41:30.543Z,71.0
2022-10-30T12:42:30.547Z,70.8
2022-10-30T12:43:30.564Z,70.9
2022-10-30T12:44:30.558Z,71.1
2022-10-30T12:45:30.562Z,70.9
2022-10-30T12:46:30.571Z,71.1
2022-10-30T12:47:30.570Z,71.3
2022-10-30T12:48:30.598Z,71.4
2022-10-30T12:49:30.598Z,71.6
2022-10-30T12:50:30.602Z,71.7
2022-10-30T12:51:30.611Z,71.6
2022-10-30T12:52:30.613Z,71.8
2022-10-30T12:53:30.627Z,71.7
2022-10-30T12:54:30.629Z,71.5
2022-10-30T12:55:30.637Z,71.7
2022-10-30T12:56:30.662Z,71.9
2022-10-30T12:57:30.661Z,72.0
2022-10-30T12:58:30.669Z,71.8
2022-10-30T12:59:30.672Z,71.8
2022-10-30T13:00:30.680Z,71.8
2022-10-30T13:01:30.976Z,71.7
2022-10-30T13:02:30.944Z,71.8
2022-10-30T13:03:30.705Z,71.8
2022-10-30T13:04:30.707Z,72.0
2022-10-30T13:05:30.713Z,72.3
2022-10-30T13:06:30.721Z,72.4
2022-10-30T13:07:30.756Z,72.8
2022-10-30T13:08:30.735Z,72.9
2022-10-30T13:09:30.747Z,72.7
2022-10-30T13:10:30.754Z,72.8
2022-10-30T13:11:30.762Z,72.4
2022-10-30T13:12:30.769Z,71.5
2022-10-30T13:13:30.778Z,71.7
2022-10-30T13:14:30.787Z,71.7
2022-10-30T13:15:30.787Z,71.5
2022-10-30T13:16:30.803Z,71.6
2022-10-30T13:17:30.804Z,71.5
2022-10-30T13:18:30.814Z,71.3
2022-10-30T13:19:30.817Z,71.0
2022-10-30T13:20:30.822Z,71.0
2022-10-30T13:21:30.964Z,71.3
2022-10-30T13:22:30.876Z,71.4
2022-10-30T13:23:30.842Z,71.0
2022-10-30T13:24:30.849Z,71.1
2022-10-30T13:25:30.859Z,71.5
2022-10-30T13:26:30.863Z,71.4
2022-10-30T13:27:30.864Z,71.5
2022-10-30T13:28:30.876Z,71.6
2022-10-30T13:29:30.883Z,71.6
2022-10-30T13:30:30.893Z,71.5
2022-10-30T13:31:30.894Z,71.1
2022-10-30T13:32:30.911Z,71.3
2022-10-30T13:33:30.913Z,70.9
2022-10-30T13:34:30.912Z,71.1
2022-10-30T13:35:30.922Z,71.3
2022-10-30T13:36:31.165Z,71.1
2022-10-30T13:37:30.926Z,71.2
2022-10-30T13:38:30.963Z,71.3
2022-10-30T13:39:31.134Z,71.3
2022-10-30T13:40:30.940Z,71.2
2022-10-30T13:41:30.945Z,71.1
2022-10-30T13:42:30.964Z,70.9
2022-10-30T13:43:30.961Z,71.2
2022-10-30T13:44:30.977Z,71.2
2022-10-30T13:45:30.979Z,71.2
2022-10-30T13:46:30.990Z,71.3
2022-10-30T13:47:30.994Z,71.5
2022-10-30T13:48:31.084Z,71.6
2022-10-30T13:49:31.012Z,71.7
2022-10-30T13:50:31.017Z,72.0
2022-10-30T13:51:31.027Z,72.0
2022-10-30T13:52:31.054Z,72.0
2022-10-30T13:53:31.042Z,72.2
2022-10-30T13:54:31.050Z,72.3
2022-10-30T13:55:31.052Z,72.2
2022-10-30T13:56:31.068Z,72.3
2022-10-30T13:57:31.065Z,72.4
2022-10-30T13:58:31.072Z,72.6
2022-10-30T13:59:31.077Z,72.9
2022-10-30T14:00:31.092Z,72.9
2022-10-30T14:01:31.513Z,73.0
2022-10-30T14:02:31.670Z,72.8
2022-10-30T14:03:31.148Z,73.0
2022-10-30T14:04:31.112Z,73.0
2022-10-30T14:05:31.123Z,73.2
2022-10-30T14:06:31.136Z,73.3
2022-10-30T14:07:31.147Z,73.4
2022-10-30T14:09:31.160Z,73.9
2022-10-30T14:10:31.169Z,73.9
2022-10-30T14:11:31.173Z,73.9
2022-10-30T14:12:31.192Z,74.0
2022-10-30T14:13:31.200Z,74.1
2022-10-30T14:14:31.206Z,74.2